メインページ
METAR-TAF:

METAR-TAF

空港 :

ルクセンブルク-フィンデル空港

ルクセンブルク, ルクセンブルク

緯度: 49-37N, 経度: 006-13E, 海抜: 376m

現時点の気象観測

当レポートは23分前の09:20(UTC)に作成
南/南西の風 7kt
気温 6°C
湿度 100%
気圧 1014 hPa
視程10km以上
高度800ftの雲は散在している
高度1200ftの千切れ雲あり

METAR: ELLX 190920Z 21007KT 9999 SCT008 BKN012 06/06 Q1014 NOSIG

時間: 10:43 (09:43 UTC)

予報

当レポートは4時間43分前の05:00(UTC)に作成
予報は19日の 06時(UTC)から 20日の 12時(UTC)まで有効
南/南西の風 9kt
視程10km以上
高度1200ftの雲は散在している
高度2000ftの千切れ雲あり
19日の 13時(UTC)から 20日の 12時(UTC)まで一時的に
視程: 6000m
高度600ftの雲は散在している
高度1500ftの千切れ雲あり
弱いにわか雨
20日の 03時(UTC)から 20日の 08時(UTC)まで一時的に
視程: 2500m
高度400ftの千切れ雲あり

TAF: ELLX 190500Z 1906/2012 21009KT 9999 SCT012 BKN020 TEMPO 1913/2012 6000 -SHRA SCT006 BKN015 TEMPO 2003/2008 2500 BR BKN004

4,000以上の空港の気象観測と天気予報(METAR報とTAF報)

利用可能な観測所は地図上に黄色い丸と赤い丸で示す。

丸の上にカーソルを重ねると観測所名を参照できる。

次にクリックすると気象観測と天気予報を参照できる。

マップの切り替え:黒色「×」印の緑ボタンをクリックして拡大、「-」印の緑ボタンをクリックして縮小、緑色の三角印をクリックして隣りの地図に切り替え


METAR-TAF: